createdAt,value
2024-04-25T00:00:22.679Z,1000.67
2024-04-25T00:01:22.742Z,1000.65
2024-04-25T00:02:22.769Z,1000.64
2024-04-25T00:03:22.730Z,1000.64
2024-04-25T00:04:22.656Z,1000.67
2024-04-25T00:05:22.779Z,1000.65
2024-04-25T00:06:22.625Z,1000.65
2024-04-25T00:07:22.684Z,1000.62
2024-04-25T00:08:22.735Z,1000.59
2024-04-25T00:09:22.590Z,1000.59
2024-04-25T00:10:22.636Z,1000.58
2024-04-25T00:11:22.816Z,1000.59
2024-04-25T00:12:22.563Z,1000.56
2024-04-25T00:13:22.603Z,1000.58
2024-04-25T00:14:22.599Z,1000.56
2024-04-25T00:15:22.535Z,1000.61
2024-04-25T00:16:22.628Z,1000.64
2024-04-25T00:17:22.596Z,1000.60
2024-04-25T00:18:22.530Z,1000.63
2024-04-25T00:19:22.509Z,1000.60
2024-04-25T00:20:22.525Z,1000.59
2024-04-25T00:21:22.567Z,1000.62
2024-04-25T00:22:22.460Z,1000.62
2024-04-25T00:23:22.502Z,1000.63
2024-04-25T00:24:22.436Z,1000.60
2024-04-25T00:25:22.446Z,1000.62
2024-04-25T00:26:22.697Z,1000.62
2024-04-25T00:27:22.488Z,1000.58
2024-04-25T00:28:22.406Z,1000.62
2024-04-25T00:29:22.423Z,1000.58
2024-04-25T00:30:22.378Z,1000.57
2024-04-25T00:31:22.369Z,1000.58
2024-04-25T00:32:22.462Z,1000.59
2024-04-25T00:33:22.383Z,1000.58
2024-04-25T00:34:22.356Z,1000.60
2024-04-25T00:35:22.339Z,1000.57
2024-04-25T00:36:22.316Z,1000.58
2024-04-25T00:37:22.390Z,1000.56
2024-04-25T00:38:22.323Z,1000.61
2024-04-25T00:39:22.306Z,1000.61
2024-04-25T00:40:22.262Z,1000.59
2024-04-25T00:41:22.292Z,1000.60
2024-04-25T00:42:22.252Z,1000.62
2024-04-25T00:43:22.330Z,1000.55
2024-04-25T00:44:22.297Z,1000.50
2024-04-25T00:45:22.230Z,1000.58
2024-04-25T00:46:22.292Z,1000.58
2024-04-25T00:47:22.329Z,1000.47
2024-04-25T00:48:22.302Z,1000.50
2024-04-25T00:49:22.198Z,1000.49
2024-04-25T00:50:22.190Z,1000.49
2024-04-25T00:51:22.177Z,1000.48
2024-04-25T00:52:22.198Z,1000.45
2024-04-25T00:53:22.252Z,1000.49
2024-04-25T00:54:22.125Z,1000.46
2024-04-25T00:55:22.173Z,1000.48
2024-04-25T00:56:22.142Z,1000.47
2024-04-25T00:57:22.093Z,1000.43
2024-04-25T00:58:22.078Z,1000.42
2024-04-25T00:59:22.229Z,1000.44
2024-04-25T01:00:22.110Z,1000.40
2024-04-25T01:01:22.055Z,1000.45
2024-04-25T01:02:22.121Z,1000.38
2024-04-25T01:03:22.091Z,1000.40
2024-04-25T01:04:22.141Z,1000.43
2024-04-25T01:05:22.183Z,1000.36
2024-04-25T01:06:22.001Z,1000.39
2024-04-25T01:07:22.002Z,1000.39
2024-04-25T01:08:21.991Z,1000.34
2024-04-25T01:09:21.972Z,1000.35
2024-04-25T01:10:22.017Z,1000.34
2024-04-25T01:11:22.010Z,1000.33
2024-04-25T01:12:21.924Z,1000.34
2024-04-25T01:13:21.931Z,1000.30
2024-04-25T01:14:21.958Z,1000.30
2024-04-25T01:15:21.966Z,1000.34
2024-04-25T01:16:21.943Z,1000.28
2024-04-25T01:17:21.919Z,1000.27
2024-04-25T01:18:22.019Z,1000.31
2024-04-25T01:19:21.911Z,1000.32
2024-04-25T01:20:21.875Z,1000.33
2024-04-25T01:21:21.846Z,1000.38
2024-04-25T01:22:21.827Z,1000.32
2024-04-25T01:23:21.936Z,1000.37
2024-04-25T01:24:21.816Z,1000.35
2024-04-25T01:25:21.870Z,1000.40
2024-04-25T01:26:21.941Z,1000.37
2024-04-25T01:27:21.768Z,1000.36
2024-04-25T01:28:21.784Z,1000.35
2024-04-25T01:29:21.904Z,1000.29
2024-04-25T01:30:21.758Z,1000.31
2024-04-25T01:31:21.868Z,1000.31
2024-04-25T01:32:21.730Z,1000.29
2024-04-25T01:33:21.899Z,1000.27
2024-04-25T01:34:21.692Z,1000.25
2024-04-25T01:35:21.732Z,1000.29
2024-04-25T01:36:21.787Z,1000.29
2024-04-25T01:37:21.666Z,1000.25
2024-04-25T01:38:21.721Z,1000.25
2024-04-25T01:39:21.756Z,1000.25
2024-04-25T01:40:21.686Z,1000.20
2024-04-25T01:41:21.697Z,1000.21
2024-04-25T01:42:21.612Z,1000.21
2024-04-25T01:43:21.632Z,1000.21
2024-04-25T01:44:21.683Z,1000.19
2024-04-25T01:45:21.588Z,1000.16
2024-04-25T01:46:21.788Z,1000.20
2024-04-25T01:47:21.668Z,1000.23
2024-04-25T01:48:21.835Z,1000.21
2024-04-25T01:49:21.655Z,1000.23
2024-04-25T01:50:21.554Z,1000.18
2024-04-25T01:51:21.527Z,1000.19
2024-04-25T01:52:21.534Z,1000.17
2024-04-25T01:53:21.725Z,1000.15
2024-04-25T01:54:21.552Z,1000.17
2024-04-25T01:55:21.487Z,1000.14
2024-04-25T01:56:21.482Z,1000.17
2024-04-25T01:57:21.452Z,1000.14
2024-04-25T01:58:21.543Z,1000.16
2024-04-25T01:59:21.469Z,1000.19
2024-04-25T02:00:21.416Z,1000.15
2024-04-25T02:01:21.535Z,1000.16
2024-04-25T02:02:21.500Z,1000.19
2024-04-25T02:03:21.415Z,1000.18
2024-04-25T02:04:21.547Z,1000.20
2024-04-25T02:05:21.407Z,1000.19
2024-04-25T02:06:21.357Z,1000.20
2024-04-25T02:07:21.360Z,1000.19
2024-04-25T02:08:21.495Z,1000.16
2024-04-25T02:09:21.345Z,1000.19
2024-04-25T02:10:21.408Z,1000.16
2024-04-25T02:11:21.365Z,1000.21
2024-04-25T02:12:21.347Z,1000.20
2024-04-25T02:13:21.312Z,1000.19
2024-04-25T02:14:21.415Z,1000.19
2024-04-25T02:15:21.276Z,1000.23
2024-04-25T02:16:21.266Z,1000.24
2024-04-25T02:17:21.289Z,1000.21
2024-04-25T02:18:21.439Z,1000.16
2024-04-25T02:19:21.270Z,1000.21
2024-04-25T02:20:21.253Z,1000.18
2024-04-25T02:21:21.218Z,1000.19
2024-04-25T02:22:21.210Z,1000.21
2024-04-25T02:23:21.199Z,1000.24
2024-04-25T02:24:21.352Z,1000.23
2024-04-25T02:25:21.195Z,1000.26
2024-04-25T02:26:21.184Z,1000.23
2024-04-25T02:27:21.332Z,1000.28
2024-04-25T02:28:21.163Z,1000.24
2024-04-25T02:29:21.142Z,1000.24
2024-04-25T02:30:21.130Z,1000.22
2024-04-25T02:31:21.318Z,1000.23
2024-04-25T02:32:21.324Z,1000.26
2024-04-25T02:33:21.246Z,1000.25
2024-04-25T02:34:21.080Z,1000.25
2024-04-25T02:35:21.103Z,1000.21
2024-04-25T02:36:21.049Z,1000.24
2024-04-25T02:37:21.033Z,1000.25
2024-04-25T02:38:21.065Z,1000.20
2024-04-25T02:39:21.128Z,1000.23
2024-04-25T02:40:21.081Z,1000.18
2024-04-25T02:41:21.086Z,1000.20
2024-04-25T02:42:21.034Z,1000.17
2024-04-25T02:43:20.999Z,1000.16
2024-04-25T02:44:21.025Z,1000.18
2024-04-25T02:45:21.083Z,1000.17
2024-04-25T02:46:20.962Z,1000.18
2024-04-25T02:47:21.024Z,1000.18
2024-04-25T02:48:21.026Z,1000.18
2024-04-25T02:49:20.924Z,1000.19
2024-04-25T02:50:20.943Z,1000.20
2024-04-25T02:51:21.000Z,1000.20
2024-04-25T02:52:21.004Z,1000.21
2024-04-25T02:53:20.912Z,1000.22
2024-04-25T02:54:20.866Z,1000.17
2024-04-25T02:55:20.911Z,1000.24
2024-04-25T02:56:20.959Z,1000.25
2024-04-25T02:57:20.823Z,1000.19
2024-04-25T02:58:20.892Z,1000.23
2024-04-25T02:59:20.837Z,1000.24
2024-04-25T03:00:20.838Z,1000.21
2024-04-25T03:01:20.773Z,1000.21
2024-04-25T03:02:20.846Z,1000.23
2024-04-25T03:03:20.976Z,1000.23
2024-04-25T03:04:20.889Z,1000.19
2024-04-25T03:05:20.824Z,1000.16
2024-04-25T03:06:20.801Z,1000.18
2024-04-25T03:07:20.822Z,1000.21
2024-04-25T03:08:20.747Z,1000.20
2024-04-25T03:09:20.697Z,1000.16
2024-04-25T03:10:20.727Z,1000.18
2024-04-25T03:11:20.766Z,1000.17
2024-04-25T03:12:20.714Z,1000.19
2024-04-25T03:13:20.749Z,1000.18
2024-04-25T03:14:20.722Z,1000.21
2024-04-25T03:15:20.633Z,1000.16
2024-04-25T03:16:20.647Z,1000.12
2024-04-25T03:17:20.966Z,1000.13
2024-04-25T03:18:20.808Z,1000.11
2024-04-25T03:19:20.600Z,1000.11
2024-04-25T03:20:20.806Z,1000.15
2024-04-25T03:21:20.568Z,1000.11
2024-04-25T03:22:20.568Z,1000.08
2024-04-25T03:23:20.668Z,1000.12
2024-04-25T03:24:20.621Z,1000.13
2024-04-25T03:25:20.537Z,1000.13
2024-04-25T03:26:20.572Z,1000.12
2024-04-25T03:27:20.640Z,1000.10
2024-04-25T03:28:20.608Z,1000.11
2024-04-25T03:29:20.563Z,1000.11
2024-04-25T03:30:20.556Z,1000.05
2024-04-25T03:31:21.714Z,1000.10
2024-04-25T03:32:20.589Z,1000.08
2024-04-25T03:33:20.700Z,1000.11
2024-04-25T03:34:20.521Z,1000.07
2024-04-25T03:35:20.787Z,1000.08
2024-04-25T03:36:20.426Z,1000.10
2024-04-25T03:37:20.414Z,1000.07
2024-04-25T03:38:20.486Z,1000.08
2024-04-25T03:39:20.382Z,1000.06
2024-04-25T03:40:20.393Z,1000.06
2024-04-25T03:41:20.451Z,1000.10
2024-04-25T03:42:20.363Z,1000.08
2024-04-25T03:43:20.342Z,1000.08
2024-04-25T03:44:20.397Z,1000.09
2024-04-25T03:45:20.324Z,1000.10
2024-04-25T03:46:20.325Z,1000.09
2024-04-25T03:47:20.335Z,1000.08
2024-04-25T03:48:20.491Z,1000.11
2024-04-25T03:49:20.277Z,1000.09
2024-04-25T03:50:20.341Z,1000.10
2024-04-25T03:51:20.259Z,1000.09
2024-04-25T03:52:20.268Z,1000.08
2024-04-25T03:53:20.250Z,1000.10
2024-04-25T03:54:20.259Z,1000.06
2024-04-25T03:55:20.227Z,1000.05
2024-04-25T03:56:20.336Z,1000.06
2024-04-25T03:57:20.191Z,1000.05
2024-04-25T03:58:20.212Z,1000.10
2024-04-25T03:59:20.187Z,1000.08
2024-04-25T04:00:20.176Z,1000.12
2024-04-25T04:01:20.215Z,1000.09
2024-04-25T04:02:20.193Z,1000.12
2024-04-25T04:03:20.197Z,1000.13
2024-04-25T04:04:20.102Z,1000.14
2024-04-25T04:05:20.137Z,1000.19
2024-04-25T04:06:20.100Z,1000.14
2024-04-25T04:07:20.789Z,1000.15
2024-04-25T04:08:20.187Z,1000.13
2024-04-25T04:09:20.103Z,1000.17
2024-04-25T04:10:20.063Z,1000.19
2024-04-25T04:11:20.101Z,1000.17
2024-04-25T04:12:20.042Z,1000.19
2024-04-25T04:13:20.024Z,1000.19
2024-04-25T04:14:20.050Z,1000.17
2024-04-25T04:15:21.188Z,1000.18
2024-04-25T04:16:20.048Z,1000.20
2024-04-25T04:17:20.040Z,1000.17
2024-04-25T04:18:20.038Z,1000.17
2024-04-25T04:19:19.981Z,1000.15
2024-04-25T04:20:20.256Z,1000.13
2024-04-25T04:21:19.966Z,1000.13
2024-04-25T04:22:19.929Z,1000.12
2024-04-25T04:23:19.974Z,1000.13
2024-04-25T04:24:19.920Z,1000.12
2024-04-25T04:25:19.910Z,1000.14
2024-04-25T04:26:19.977Z,1000.13
2024-04-25T04:27:19.895Z,1000.13
2024-04-25T04:28:19.890Z,1000.17
2024-04-25T04:29:19.874Z,1000.19
2024-04-25T04:30:19.987Z,1000.19
2024-04-25T04:31:19.823Z,1000.15
2024-04-25T04:32:19.943Z,1000.15
2024-04-25T04:33:19.985Z,1000.20
2024-04-25T04:34:19.932Z,1000.18
2024-04-25T04:35:19.897Z,1000.16
2024-04-25T04:36:19.794Z,1000.15
2024-04-25T04:37:19.776Z,1000.21
2024-04-25T04:38:19.879Z,1000.18
2024-04-25T04:39:19.794Z,1000.17
2024-04-25T04:40:20.250Z,1000.15
2024-04-25T04:41:19.757Z,1000.13
2024-04-25T04:42:19.731Z,1000.14
2024-04-25T04:43:19.777Z,1000.14
2024-04-25T04:44:19.825Z,1000.15
2024-04-25T04:45:19.779Z,1000.14
2024-04-25T04:46:19.682Z,1000.13
2024-04-25T04:47:19.850Z,1000.09
2024-04-25T04:48:26.760Z,1000.14
2024-04-25T04:49:20.713Z,1000.16
2024-04-25T04:50:19.687Z,1000.12
2024-04-25T04:51:19.622Z,1000.14
2024-04-25T04:52:19.617Z,1000.17
2024-04-25T04:53:19.656Z,1000.12
2024-04-25T04:54:19.672Z,1000.15
2024-04-25T04:55:19.690Z,1000.18
2024-04-25T04:56:19.662Z,1000.11
2024-04-25T04:57:19.549Z,1000.15
2024-04-25T04:58:19.542Z,1000.11
2024-04-25T04:59:19.616Z,1000.15
2024-04-25T05:00:19.534Z,1000.17
2024-04-25T05:01:19.697Z,1000.15
2024-04-25T05:02:19.675Z,1000.17
2024-04-25T05:03:19.627Z,1000.13
2024-04-25T05:04:19.521Z,1000.14
2024-04-25T05:05:19.549Z,1000.14
2024-04-25T05:06:19.503Z,1000.17
2024-04-25T05:07:19.460Z,1000.16
2024-04-25T05:08:19.485Z,1000.13
2024-04-25T05:09:19.418Z,1000.16
2024-04-25T05:10:20.354Z,1000.14
2024-04-25T05:11:19.504Z,1000.18
2024-04-25T05:12:19.445Z,1000.16
2024-04-25T05:13:19.405Z,1000.17
2024-04-25T05:14:19.468Z,1000.20
2024-04-25T05:15:19.547Z,1000.16
2024-04-25T05:16:19.401Z,1000.16
2024-04-25T05:17:19.421Z,1000.17
2024-04-25T05:18:19.430Z,1000.16
2024-04-25T05:19:19.389Z,1000.16
2024-04-25T05:20:19.375Z,1000.16
2024-04-25T05:21:19.313Z,1000.17
2024-04-25T05:22:19.306Z,1000.14
2024-04-25T05:23:19.336Z,1000.19
2024-04-25T05:24:19.404Z,1000.16
2024-04-25T05:25:19.351Z,1000.13
2024-04-25T05:26:19.301Z,1000.18
2024-04-25T05:27:19.274Z,1000.21
2024-04-25T05:28:19.304Z,1000.21
2024-04-25T05:29:19.294Z,1000.24
2024-04-25T05:30:19.324Z,1000.18
2024-04-25T05:31:19.218Z,1000.20
2024-04-25T05:32:19.275Z,1000.17
2024-04-25T05:33:19.335Z,1000.17
2024-04-25T05:34:19.191Z,1000.17
2024-04-25T05:35:19.203Z,1000.14
2024-04-25T05:36:19.190Z,1000.15
2024-04-25T05:37:19.140Z,1000.12
2024-04-25T05:38:19.195Z,1000.15
2024-04-25T05:39:19.110Z,1000.11
2024-04-25T05:40:19.172Z,1000.11
2024-04-25T05:41:19.162Z,1000.08
2024-04-25T05:42:19.089Z,1000.09
2024-04-25T05:43:19.094Z,1000.05
2024-04-25T05:44:19.099Z,1000.04
2024-04-25T05:45:19.078Z,1000.10
2024-04-25T05:46:19.054Z,1000.04
2024-04-25T05:47:19.199Z,1000.07
2024-04-25T05:48:19.187Z,1000.04
2024-04-25T05:49:19.003Z,1000.07
2024-04-25T05:50:19.075Z,1000.09
2024-04-25T05:51:19.019Z,1000.10
2024-04-25T05:52:19.001Z,1000.14
2024-04-25T05:53:18.989Z,1000.09
2024-04-25T05:54:18.965Z,1000.20
2024-04-25T05:55:19.040Z,1000.19
2024-04-25T05:56:19.005Z,1000.16
2024-04-25T05:57:18.941Z,1000.15
2024-04-25T05:58:18.962Z,1000.15
2024-04-25T05:59:19.000Z,1000.16
2024-04-25T06:00:18.934Z,1000.16
2024-04-25T06:01:19.201Z,1000.16
2024-04-25T06:02:18.874Z,1000.17
2024-04-25T06:03:19.035Z,1000.16
2024-04-25T06:04:18.937Z,1000.14
2024-04-25T06:05:18.969Z,1000.18
2024-04-25T06:06:18.860Z,1000.15
2024-04-25T06:07:18.852Z,1000.18
2024-04-25T06:08:18.845Z,1000.19
2024-04-25T06:09:18.875Z,1000.16
2024-04-25T06:10:18.799Z,1000.21
2024-04-25T06:11:18.926Z,1000.25
2024-04-25T06:12:19.120Z,1000.24
2024-04-25T06:13:18.806Z,1000.22
2024-04-25T06:14:18.761Z,1000.24
2024-04-25T06:15:19.024Z,1000.20
2024-04-25T06:16:18.744Z,1000.18
2024-04-25T06:17:18.826Z,1000.21
2024-04-25T06:18:18.854Z,1000.16
2024-04-25T06:19:18.785Z,1000.12
2024-04-25T06:20:18.739Z,1000.16
2024-04-25T06:21:18.686Z,1000.15
2024-04-25T06:22:18.661Z,1000.17
2024-04-25T06:23:18.706Z,1000.15
2024-04-25T06:24:18.665Z,1000.16
2024-04-25T06:25:18.645Z,1000.15
2024-04-25T06:26:18.697Z,1000.12
2024-04-25T06:27:18.633Z,1000.20
2024-04-25T06:28:18.618Z,1000.18
2024-04-25T06:29:18.585Z,1000.15
2024-04-25T06:30:18.630Z,1000.19
2024-04-25T06:31:18.593Z,1000.21
2024-04-25T06:32:18.735Z,1000.16
2024-04-25T06:33:18.686Z,1000.14
2024-04-25T06:34:18.609Z,1000.15
2024-04-25T06:35:18.622Z,1000.20
2024-04-25T06:36:18.518Z,1000.17
2024-04-25T06:37:18.564Z,1000.23
2024-04-25T06:38:18.552Z,1000.22
2024-04-25T06:39:18.489Z,1000.24
2024-04-25T06:40:18.476Z,1000.17
2024-04-25T06:41:18.495Z,1000.19
2024-04-25T06:42:18.549Z,1000.21
2024-04-25T06:43:18.463Z,1000.15
2024-04-25T06:44:27.391Z,1000.16
2024-04-25T06:45:19.487Z,1000.15
2024-04-25T06:46:18.447Z,1000.19
2024-04-25T06:47:18.501Z,1000.14
2024-04-25T06:48:18.550Z,1000.14
2024-04-25T06:49:18.527Z,1000.17
2024-04-25T06:50:18.486Z,1000.11
2024-04-25T06:51:18.447Z,1000.13
2024-04-25T06:52:18.361Z,1000.13
2024-04-25T06:53:18.390Z,1000.15
2024-04-25T06:54:18.380Z,1000.13
2024-04-25T06:55:18.417Z,1000.14
2024-04-25T06:56:18.397Z,1000.13
2024-04-25T06:57:18.387Z,1000.14
2024-04-25T06:58:18.325Z,1000.17
2024-04-25T06:59:18.335Z,1000.22
2024-04-25T07:00:18.352Z,1000.21
2024-04-25T07:01:18.474Z,1000.19
2024-04-25T07:02:18.562Z,1000.16
2024-04-25T07:03:18.276Z,1000.16
2024-04-25T07:04:18.426Z,1000.16
2024-04-25T07:05:18.323Z,1000.12
2024-04-25T07:06:18.265Z,1000.19
2024-04-25T07:07:18.326Z,1000.17
2024-04-25T07:08:18.330Z,1000.13
2024-04-25T07:09:18.255Z,1000.16
2024-04-25T07:10:18.336Z,1000.14
2024-04-25T07:11:18.314Z,1000.12
2024-04-25T07:12:18.142Z,1000.18
2024-04-25T07:13:18.136Z,1000.16
2024-04-25T07:14:18.180Z,1000.13
2024-04-25T07:15:18.216Z,1000.18
2024-04-25T07:16:18.102Z,1000.15
2024-04-25T07:17:18.170Z,1000.14
2024-04-25T07:18:18.271Z,1000.16
2024-04-25T07:19:18.126Z,1000.12
2024-04-25T07:20:18.075Z,1000.17
2024-04-25T07:21:18.083Z,1000.12
2024-04-25T07:22:18.111Z,1000.14
2024-04-25T07:23:18.031Z,1000.13
2024-04-25T07:24:18.054Z,1000.11
2024-04-25T07:25:18.081Z,1000.09
2024-04-25T07:26:18.138Z,1000.11
2024-04-25T07:27:18.047Z,1000.11
2024-04-25T07:28:17.953Z,1000.10
2024-04-25T07:29:17.994Z,1000.10
2024-04-25T07:30:18.062Z,1000.13
2024-04-25T07:31:17.983Z,1000.08
2024-04-25T07:32:18.142Z,1000.09
2024-04-25T07:33:18.025Z,1000.08
2024-04-25T07:34:17.971Z,1000.04
2024-04-25T07:35:17.925Z,1000.10
2024-04-25T07:36:17.901Z,1000.02
2024-04-25T07:37:17.936Z,1000.03
2024-04-25T07:38:18.011Z,999.97
2024-04-25T07:39:21.190Z,999.99
2024-04-25T07:40:17.938Z,999.95
2024-04-25T07:41:17.843Z,999.96
2024-04-25T07:42:17.974Z,999.93
2024-04-25T07:43:17.811Z,999.93
2024-04-25T07:44:17.875Z,999.97
2024-04-25T07:45:17.838Z,999.94
2024-04-25T07:46:17.890Z,999.95
2024-04-25T07:47:17.834Z,999.94
2024-04-25T07:48:17.932Z,999.92
2024-04-25T07:49:17.792Z,999.93
2024-04-25T07:50:17.832Z,999.95
2024-04-25T07:51:17.782Z,999.95
2024-04-25T07:52:17.777Z,999.95
2024-04-25T07:53:17.722Z,999.92
2024-04-25T07:54:17.747Z,999.96
2024-04-25T07:55:17.677Z,999.90
2024-04-25T07:56:17.712Z,999.94
2024-04-25T07:57:17.719Z,999.88
2024-04-25T07:58:17.680Z,999.91
2024-04-25T07:59:17.685Z,999.87
2024-04-25T08:00:17.635Z,999.88
2024-04-25T08:01:17.625Z,999.89
2024-04-25T08:02:17.686Z,999.88
2024-04-25T08:03:17.787Z,999.93
2024-04-25T08:04:17.720Z,999.87
2024-04-25T08:05:17.606Z,999.92
2024-04-25T08:06:17.566Z,999.93
2024-04-25T08:07:17.549Z,999.91
2024-04-25T08:08:17.612Z,999.91
2024-04-25T08:09:17.649Z,999.90
2024-04-25T08:10:17.562Z,999.89
2024-04-25T08:11:17.689Z,999.87
2024-04-25T08:12:17.483Z,999.87
2024-04-25T08:13:17.487Z,999.92
2024-04-25T08:14:17.567Z,999.91
2024-04-25T08:15:17.481Z,999.93
2024-04-25T08:16:17.537Z,999.89
2024-04-25T08:17:17.479Z,999.89
2024-04-25T08:18:17.658Z,999.90
2024-04-25T08:19:17.429Z,999.87
2024-04-25T08:20:17.560Z,999.88
2024-04-25T08:21:17.407Z,999.91
2024-04-25T08:22:17.407Z,999.86
2024-04-25T08:23:17.494Z,999.91
2024-04-25T08:24:17.391Z,999.90
2024-04-25T08:25:17.368Z,999.92
2024-04-25T08:26:17.516Z,999.92
2024-04-25T08:27:17.349Z,999.91
2024-04-25T08:28:17.389Z,999.90
2024-04-25T08:29:17.463Z,999.86
2024-04-25T08:30:17.298Z,999.92
2024-04-25T08:31:17.352Z,999.94
2024-04-25T08:32:17.450Z,999.87
2024-04-25T08:33:17.366Z,999.91
2024-04-25T08:34:17.437Z,999.89
2024-04-25T08:35:17.362Z,999.92
2024-04-25T08:36:17.256Z,999.90
2024-04-25T08:37:17.247Z,999.90
2024-04-25T08:38:17.271Z,999.90
2024-04-25T08:39:17.304Z,999.93
2024-04-25T08:40:17.213Z,999.91
2024-04-25T08:41:17.390Z,999.95
2024-04-25T08:42:17.207Z,999.92
2024-04-25T08:43:17.184Z,999.89
2024-04-25T08:44:17.946Z,999.85
2024-04-25T08:45:17.156Z,999.88
2024-04-25T08:46:17.188Z,999.88
2024-04-25T08:47:17.310Z,999.91
2024-04-25T08:48:17.187Z,999.83
2024-04-25T08:49:17.125Z,999.86
2024-04-25T08:50:17.839Z,999.89
2024-04-25T08:51:17.101Z,999.89
2024-04-25T08:52:17.096Z,999.90
2024-04-25T08:53:17.091Z,999.86
2024-04-25T08:54:17.059Z,999.84
2024-04-25T08:55:17.086Z,999.85
2024-04-25T08:56:17.049Z,999.84
2024-04-25T08:57:17.025Z,999.78
2024-04-25T08:58:17.024Z,999.79
2024-04-25T08:59:17.017Z,999.79
2024-04-25T09:00:17.092Z,999.77
2024-04-25T09:01:17.014Z,999.73
2024-04-25T09:02:17.200Z,999.73
2024-04-25T09:03:17.146Z,999.78
2024-04-25T09:04:17.013Z,999.76
2024-04-25T09:05:16.951Z,999.78
2024-04-25T09:06:16.976Z,999.75
2024-04-25T09:07:16.943Z,999.77
2024-04-25T09:08:16.952Z,999.76
2024-04-25T09:09:16.892Z,999.74
2024-04-25T09:10:17.060Z,999.75
2024-04-25T09:11:16.919Z,999.78
2024-04-25T09:12:16.944Z,999.71
2024-04-25T09:13:16.950Z,999.76
2024-04-25T09:14:16.889Z,999.74
2024-04-25T09:15:16.873Z,999.70
2024-04-25T09:16:16.841Z,999.71
2024-04-25T09:17:16.843Z,999.74
2024-04-25T09:18:16.941Z,999.70
2024-04-25T09:19:16.788Z,999.76
2024-04-25T09:20:16.910Z,999.67
2024-04-25T09:21:16.773Z,999.68
2024-04-25T09:22:16.765Z,999.68
2024-04-25T09:23:16.774Z,999.67
2024-04-25T09:24:16.764Z,999.64
2024-04-25T09:25:16.712Z,999.65
2024-04-25T09:26:16.768Z,999.58
2024-04-25T09:27:16.770Z,999.54
2024-04-25T09:28:16.697Z,999.58
2024-04-25T09:29:16.828Z,999.55
2024-04-25T09:30:16.690Z,999.60
2024-04-25T09:31:16.667Z,999.58
2024-04-25T09:32:16.701Z,999.53
2024-04-25T09:33:16.846Z,999.52
2024-04-25T09:34:16.747Z,999.53
2024-04-25T09:35:16.685Z,999.53
2024-04-25T09:36:16.627Z,999.48
2024-04-25T09:37:16.671Z,999.50
2024-04-25T09:38:16.736Z,999.45
2024-04-25T09:39:16.614Z,999.50
2024-04-25T09:40:16.656Z,999.44
2024-04-25T09:41:16.648Z,999.46
2024-04-25T09:42:16.688Z,999.47
2024-04-25T09:43:16.532Z,999.48
2024-04-25T09:44:16.776Z,999.49
2024-04-25T09:45:16.535Z,999.43
2024-04-25T09:46:16.552Z,999.44
2024-04-25T09:47:16.515Z,999.42
2024-04-25T09:48:16.562Z,999.42
2024-04-25T09:49:16.449Z,999.40
2024-04-25T09:50:16.558Z,999.37
2024-04-25T09:51:16.510Z,999.35
2024-04-25T09:52:16.439Z,999.32
2024-04-25T09:53:16.458Z,999.34
2024-04-25T09:54:16.434Z,999.31
2024-04-25T09:55:16.437Z,999.25
2024-04-25T09:56:16.424Z,999.30
2024-04-25T09:57:16.437Z,999.32
2024-04-25T09:58:16.380Z,999.34
2024-04-25T09:59:16.408Z,999.40
2024-04-25T10:00:16.470Z,999.36
2024-04-25T10:01:16.397Z,999.46
2024-04-25T10:02:16.583Z,999.41
2024-04-25T10:03:16.353Z,999.41
2024-04-25T10:04:16.414Z,999.52
2024-04-25T10:05:16.372Z,999.50
2024-04-25T10:06:16.281Z,999.53
2024-04-25T10:07:16.429Z,999.56
2024-04-25T10:08:16.294Z,999.54
2024-04-25T10:09:16.264Z,999.52
2024-04-25T10:10:16.280Z,999.51
2024-04-25T10:11:16.367Z,999.49
2024-04-25T10:12:16.336Z,999.47
2024-04-25T10:13:16.340Z,999.48
2024-04-25T10:14:16.237Z,999.49
2024-04-25T10:15:16.251Z,999.50
2024-04-25T10:16:16.186Z,999.47
2024-04-25T10:17:16.181Z,999.47
2024-04-25T10:18:16.287Z,999.43
2024-04-25T10:19:16.198Z,999.44
2024-04-25T10:20:16.236Z,999.44
2024-04-25T10:21:16.254Z,999.43
2024-04-25T10:22:16.110Z,999.42
2024-04-25T10:23:16.328Z,999.36
2024-04-25T10:24:16.104Z,999.37
2024-04-25T10:25:16.213Z,999.35
2024-04-25T10:26:16.191Z,999.31
2024-04-25T10:27:16.069Z,999.32
2024-04-25T10:28:16.116Z,999.32
2024-04-25T10:29:16.204Z,999.31
2024-04-25T10:30:16.068Z,999.28
2024-04-25T10:31:16.018Z,999.27
2024-04-25T10:32:16.198Z,999.29
2024-04-25T10:33:16.076Z,999.29
2024-04-25T10:34:16.109Z,999.28
2024-04-25T10:35:16.011Z,999.24
2024-04-25T10:36:16.035Z,999.26
2024-04-25T10:37:16.024Z,999.19
2024-04-25T10:38:15.993Z,999.19
2024-04-25T10:39:16.233Z,999.16
2024-04-25T10:40:15.951Z,999.09
2024-04-25T10:41:15.971Z,999.09
2024-04-25T10:42:15.888Z,999.10
2024-04-25T10:43:15.898Z,999.10
2024-04-25T10:44:15.872Z,999.11
2024-04-25T10:45:15.941Z,999.04
2024-04-25T10:46:15.864Z,999.08
2024-04-25T10:47:15.910Z,999.04
2024-04-25T10:48:16.105Z,999.06
2024-04-25T10:49:16.206Z,999.00
2024-04-25T10:50:15.923Z,998.99
2024-04-25T10:51:15.801Z,998.99
2024-04-25T10:52:15.798Z,998.98
2024-04-25T10:53:15.890Z,998.99
2024-04-25T10:54:15.796Z,999.00
2024-04-25T10:55:15.759Z,998.97
2024-04-25T10:56:15.867Z,998.93
2024-04-25T10:57:15.824Z,998.95
2024-04-25T10:58:15.741Z,998.90
2024-04-25T10:59:15.810Z,998.94
2024-04-25T11:00:15.710Z,998.88
2024-04-25T11:01:15.744Z,998.90
2024-04-25T11:02:15.833Z,998.86
2024-04-25T11:03:15.734Z,998.93
2024-04-25T11:04:15.917Z,998.80
2024-04-25T11:05:15.677Z,998.84
2024-04-25T11:06:15.685Z,998.97
2024-04-25T11:07:15.900Z,998.92
2024-04-25T11:08:15.694Z,998.99
2024-04-25T11:09:15.682Z,998.97
2024-04-25T11:10:15.773Z,998.99
2024-04-25T11:11:15.750Z,998.92
2024-04-25T11:12:15.652Z,998.93
2024-04-25T11:13:15.579Z,998.97
2024-04-25T11:14:15.578Z,998.93
2024-04-25T11:15:15.709Z,998.94
2024-04-25T11:16:15.580Z,998.87
2024-04-25T11:17:15.719Z,998.96
2024-04-25T11:18:19.896Z,998.93
2024-04-25T11:19:18.847Z,998.97
2024-04-25T11:20:15.653Z,998.92
2024-04-25T11:21:15.706Z,999.05
2024-04-25T11:22:25.642Z,999.03
2024-04-25T11:23:18.055Z,999.01
2024-04-25T11:24:15.626Z,998.97
2024-04-25T11:25:15.452Z,998.96
2024-04-25T11:26:15.437Z,998.96
2024-04-25T11:27:15.480Z,998.90
2024-04-25T11:28:15.426Z,998.90
2024-04-25T11:29:15.428Z,998.90
2024-04-25T11:30:15.456Z,998.88
2024-04-25T11:31:15.497Z,998.91
2024-04-25T11:32:15.666Z,998.86
2024-04-25T11:33:15.662Z,998.89
2024-04-25T11:34:15.343Z,998.90
2024-04-25T11:35:15.429Z,998.89
2024-04-25T11:36:15.323Z,998.85
2024-04-25T11:37:15.442Z,998.84
2024-04-25T11:38:15.298Z,998.89
2024-04-25T11:39:15.312Z,998.87
2024-04-25T11:40:15.288Z,998.90
2024-04-25T11:41:15.331Z,998.83
2024-04-25T11:42:15.283Z,998.87
2024-04-25T11:43:15.373Z,998.84
2024-04-25T11:44:15.423Z,998.88
2024-04-25T11:45:15.341Z,998.84
2024-04-25T11:46:15.229Z,998.81
2024-04-25T11:47:15.254Z,998.82
2024-04-25T11:48:15.358Z,998.79
2024-04-25T11:49:15.272Z,998.83
2024-04-25T11:50:15.219Z,998.78
2024-04-25T11:51:15.160Z,998.81
2024-04-25T11:52:15.241Z,998.85
2024-04-25T11:53:15.252Z,998.82
2024-04-25T11:54:15.159Z,998.85
2024-04-25T11:55:15.117Z,998.80
2024-04-25T11:56:15.219Z,998.82
2024-04-25T11:57:15.167Z,998.83
2024-04-25T11:58:15.083Z,998.83
2024-04-25T11:59:15.211Z,998.92
2024-04-25T12:00:15.142Z,998.89
2024-04-25T12:01:15.108Z,998.90
2024-04-25T12:02:15.098Z,998.92
2024-04-25T12:03:15.061Z,998.89
2024-04-25T12:04:15.083Z,998.89
2024-04-25T12:05:15.034Z,998.86
2024-04-25T12:06:15.052Z,998.89
2024-04-25T12:07:15.001Z,998.86
2024-04-25T12:08:15.011Z,998.89
2024-04-25T12:09:14.987Z,998.91
2024-04-25T12:10:14.990Z,998.88
2024-04-25T12:11:15.072Z,998.88
2024-04-25T12:12:15.134Z,998.89
2024-04-25T12:13:14.934Z,998.84
2024-04-25T12:14:14.937Z,998.85